createdAt,value
2023-05-19T00:00:59.610Z,202.11
2023-05-19T00:01:59.639Z,195.89
2023-05-19T00:02:59.759Z,192.06
2023-05-19T00:03:59.640Z,198.70
2023-05-19T00:04:59.669Z,194.58
2023-05-19T00:05:59.770Z,192.33
2023-05-19T00:06:59.708Z,193.79
2023-05-19T00:07:59.736Z,198.75
2023-05-19T00:08:59.770Z,198.03
2023-05-19T00:09:59.765Z,196.78
2023-05-19T00:10:59.778Z,199.91
2023-05-19T00:11:59.796Z,197.05
2023-05-19T00:12:59.834Z,194.29
2023-05-19T00:13:59.928Z,195.43
2023-05-19T00:14:59.883Z,197.68
2023-05-19T00:15:59.936Z,198.38
2023-05-19T00:16:59.921Z,200.62
2023-05-19T00:17:59.946Z,200.34
2023-05-19T00:19:00.075Z,201.64
2023-05-19T00:19:59.971Z,200.82
2023-05-19T00:20:59.995Z,205.91
2023-05-19T00:22:00.019Z,205.83
2023-05-19T00:23:00.042Z,203.48
2023-05-19T00:24:00.142Z,200.57
2023-05-19T00:25:00.155Z,200.75
2023-05-19T00:26:00.115Z,205.73
2023-05-19T00:27:00.133Z,202.90
2023-05-19T00:28:00.137Z,209.06
2023-05-19T00:29:00.132Z,206.14
2023-05-19T00:30:00.171Z,206.68
2023-05-19T00:31:00.194Z,206.63
2023-05-19T00:32:00.313Z,205.74
2023-05-19T00:33:00.288Z,207.38
2023-05-19T00:34:00.253Z,209.90
2023-05-19T00:35:00.276Z,209.76
2023-05-19T00:36:00.264Z,207.79
2023-05-19T00:37:00.303Z,205.80
2023-05-19T00:38:00.295Z,206.71
2023-05-19T00:39:00.319Z,206.44
2023-05-19T00:40:00.364Z,206.76
2023-05-19T00:41:00.416Z,210.04
2023-05-19T00:42:00.452Z,209.92
2023-05-19T00:43:00.401Z,215.77
2023-05-19T00:44:00.420Z,217.86
2023-05-19T00:45:00.470Z,218.90
2023-05-19T00:46:00.517Z,217.89
2023-05-19T00:47:00.569Z,217.99
2023-05-19T00:48:00.509Z,220.62
2023-05-19T00:49:00.522Z,217.16
2023-05-19T00:50:00.571Z,218.82
2023-05-19T00:51:00.573Z,224.96
2023-05-19T00:52:00.587Z,223.30
2023-05-19T00:53:00.610Z,224.89
2023-05-19T00:54:00.630Z,223.12
2023-05-19T00:55:00.660Z,223.20
2023-05-19T00:56:00.729Z,222.17
2023-05-19T00:57:00.716Z,225.30
2023-05-19T00:58:00.730Z,223.28
2023-05-19T00:59:00.726Z,221.03
2023-05-19T01:00:00.771Z,221.65
2023-05-19T01:01:00.848Z,222.47
2023-05-19T01:02:00.781Z,224.40
2023-05-19T01:03:00.926Z,225.32
2023-05-19T01:04:00.953Z,227.63
2023-05-19T01:05:00.850Z,228.74
2023-05-19T01:06:00.897Z,231.06
2023-05-19T01:07:00.919Z,232.26
2023-05-19T01:08:00.922Z,229.63
2023-05-19T01:09:00.919Z,231.10
2023-05-19T01:10:00.955Z,234.08
2023-05-19T01:11:00.966Z,235.75
2023-05-19T01:12:00.991Z,237.59
2023-05-19T01:13:00.992Z,237.07
2023-05-19T01:14:01.031Z,238.08
2023-05-19T01:15:01.029Z,235.76
2023-05-19T01:16:01.107Z,235.96
2023-05-19T01:17:01.093Z,234.82
2023-05-19T01:18:01.170Z,234.96
2023-05-19T01:19:01.126Z,231.84
2023-05-19T01:20:01.174Z,233.00
2023-05-19T01:21:01.145Z,234.84
2023-05-19T01:22:01.235Z,234.60
2023-05-19T01:23:01.185Z,233.70
2023-05-19T01:24:01.216Z,233.61
2023-05-19T01:25:01.238Z,235.63
2023-05-19T01:26:01.279Z,234.23
2023-05-19T01:27:01.287Z,236.76
2023-05-19T01:28:01.315Z,237.73
2023-05-19T01:29:01.416Z,242.81
2023-05-19T01:30:01.352Z,243.32
2023-05-19T01:31:01.369Z,243.20
2023-05-19T01:32:01.409Z,243.15
2023-05-19T01:33:01.482Z,243.52
2023-05-19T01:34:01.479Z,242.14
2023-05-19T01:35:01.468Z,241.09
2023-05-19T01:36:01.779Z,241.42
2023-05-19T01:37:01.493Z,241.32
2023-05-19T01:38:01.510Z,241.46
2023-05-19T01:39:01.555Z,243.20
2023-05-19T01:40:01.562Z,239.91
2023-05-19T01:41:01.631Z,240.66
2023-05-19T01:42:01.600Z,243.91
2023-05-19T01:43:01.649Z,244.30
2023-05-19T01:44:01.675Z,243.20
2023-05-19T01:45:01.693Z,244.02
2023-05-19T01:46:01.743Z,243.88
2023-05-19T01:47:01.731Z,241.49
2023-05-19T01:48:01.810Z,244.46
2023-05-19T01:49:01.759Z,246.58
2023-05-19T01:50:01.792Z,250.00
2023-05-19T01:51:01.801Z,246.62
2023-05-19T01:52:01.834Z,243.30
2023-05-19T01:53:01.847Z,245.04
2023-05-19T01:54:01.885Z,247.73
2023-05-19T01:55:01.899Z,249.13
2023-05-19T01:56:01.914Z,247.74
2023-05-19T01:57:01.929Z,247.83
2023-05-19T01:58:01.993Z,246.78
2023-05-19T01:59:01.986Z,244.87
2023-05-19T02:00:01.990Z,247.75
2023-05-19T02:01:02.072Z,246.00
2023-05-19T02:02:02.051Z,246.40
2023-05-19T02:03:02.139Z,244.95
2023-05-19T02:04:02.081Z,242.99
2023-05-19T02:05:02.126Z,247.45
2023-05-19T02:06:02.153Z,245.11
2023-05-19T02:07:02.137Z,245.74
2023-05-19T02:08:02.142Z,242.30
2023-05-19T02:09:02.180Z,242.48
2023-05-19T02:10:02.189Z,242.46
2023-05-19T02:11:02.216Z,242.83
2023-05-19T02:12:02.224Z,242.62
2023-05-19T02:13:02.246Z,242.12
2023-05-19T02:14:02.276Z,239.56
2023-05-19T02:15:02.295Z,241.26
2023-05-19T02:16:02.347Z,242.61
2023-05-19T02:17:02.368Z,244.48
2023-05-19T02:18:02.388Z,244.94
2023-05-19T02:19:02.400Z,247.59
2023-05-19T02:20:02.392Z,247.78
2023-05-19T02:21:02.440Z,246.31
2023-05-19T02:22:02.442Z,247.76
2023-05-19T02:23:02.482Z,247.30
2023-05-19T02:24:02.503Z,245.00
2023-05-19T02:25:02.520Z,243.73
2023-05-19T02:26:02.531Z,245.55
2023-05-19T02:27:02.566Z,244.39
2023-05-19T02:28:02.563Z,244.80
2023-05-19T02:29:02.604Z,246.63
2023-05-19T02:30:02.608Z,244.73
2023-05-19T02:31:02.628Z,245.67
2023-05-19T02:32:02.723Z,247.30
2023-05-19T02:33:02.720Z,250.00
2023-05-19T02:34:02.698Z,248.37
2023-05-19T02:35:02.722Z,244.95
2023-05-19T02:36:02.782Z,245.93
2023-05-19T02:37:02.776Z,247.30
2023-05-19T02:38:02.799Z,245.66
2023-05-19T02:39:02.798Z,243.78
2023-05-19T02:40:02.846Z,243.30
2023-05-19T02:41:02.854Z,243.99
2023-05-19T02:42:02.866Z,245.83
2023-05-19T02:43:02.894Z,246.37
2023-05-19T02:44:02.917Z,249.74
2023-05-19T02:45:02.930Z,246.79
2023-05-19T02:46:02.968Z,245.47
2023-05-19T02:47:02.987Z,245.44
2023-05-19T02:48:03.180Z,248.14
2023-05-19T02:49:03.047Z,246.32
2023-05-19T02:50:03.042Z,246.69
2023-05-19T02:51:03.091Z,245.82
2023-05-19T02:52:03.092Z,242.28
2023-05-19T02:53:03.088Z,242.00
2023-05-19T02:54:03.127Z,245.45
2023-05-19T02:55:03.148Z,246.60
2023-05-19T02:56:03.226Z,245.40
2023-05-19T02:57:03.191Z,247.22
2023-05-19T02:58:03.218Z,248.48
2023-05-19T02:59:03.228Z,248.33
2023-05-19T03:00:03.241Z,249.99
2023-05-19T03:01:03.267Z,245.93
2023-05-19T03:02:03.316Z,246.40
2023-05-19T03:03:03.375Z,247.58
2023-05-19T03:04:03.516Z,248.19
2023-05-19T03:05:03.358Z,248.72
2023-05-19T03:06:03.365Z,248.89
2023-05-19T03:07:03.380Z,246.02
2023-05-19T03:08:03.396Z,248.57
2023-05-19T03:09:03.418Z,247.87
2023-05-19T03:10:03.517Z,248.73
2023-05-19T03:11:03.510Z,248.15
2023-05-19T03:12:03.522Z,246.79
2023-05-19T03:13:03.478Z,247.87
2023-05-19T03:14:03.508Z,248.36
2023-05-19T03:15:03.537Z,249.34
2023-05-19T03:16:03.598Z,249.48
2023-05-19T03:17:03.585Z,247.06
2023-05-19T03:18:03.656Z,246.51
2023-05-19T03:19:03.661Z,250.00
2023-05-19T03:20:03.663Z,249.26
2023-05-19T03:21:03.684Z,248.10
2023-05-19T03:22:03.756Z,247.86
2023-05-19T03:23:03.704Z,248.15
2023-05-19T03:24:03.738Z,245.76
2023-05-19T03:25:03.888Z,248.68
2023-05-19T03:26:03.778Z,247.45
2023-05-19T03:27:03.880Z,248.56
2023-05-19T03:28:03.955Z,246.81
2023-05-19T03:29:03.930Z,246.80
2023-05-19T03:30:06.274Z,247.15
2023-05-19T03:31:03.910Z,250.00
2023-05-19T03:32:03.946Z,248.58
2023-05-19T03:33:03.943Z,246.53
2023-05-19T03:34:03.891Z,246.77
2023-05-19T03:35:03.844Z,246.20
2023-05-19T03:36:03.921Z,247.63
2023-05-19T03:37:03.843Z,249.57
2023-05-19T03:38:03.834Z,249.03
2023-05-19T03:39:03.835Z,247.96
2023-05-19T03:40:03.802Z,247.91
2023-05-19T03:41:03.831Z,246.36
2023-05-19T03:42:03.801Z,246.28
2023-05-19T03:43:03.802Z,245.36
2023-05-19T03:44:03.789Z,248.01
2023-05-19T03:45:03.776Z,247.68
2023-05-19T03:46:03.853Z,247.81
2023-05-19T03:47:03.821Z,246.11
2023-05-19T03:48:03.822Z,249.04
2023-05-19T03:49:03.760Z,248.50
2023-05-19T03:50:03.734Z,248.43
2023-05-19T03:51:03.742Z,249.02
2023-05-19T03:52:03.775Z,246.32
2023-05-19T03:53:03.736Z,244.50
2023-05-19T03:54:03.702Z,246.11
2023-05-19T03:55:03.712Z,248.75
2023-05-19T03:56:03.695Z,250.00
2023-05-19T03:57:03.692Z,249.22
2023-05-19T03:58:03.684Z,247.58
2023-05-19T03:59:03.675Z,250.00
2023-05-19T04:00:03.658Z,246.73
2023-05-19T04:01:03.683Z,249.80
2023-05-19T04:02:03.670Z,249.20
2023-05-19T04:03:03.686Z,250.00
2023-05-19T04:04:03.681Z,246.86
2023-05-19T04:05:03.619Z,246.92
2023-05-19T04:06:03.629Z,248.75
2023-05-19T04:07:03.639Z,249.78
2023-05-19T04:08:03.642Z,247.74
2023-05-19T04:09:03.591Z,248.78
2023-05-19T04:10:03.576Z,247.86
2023-05-19T04:11:03.581Z,249.44
2023-05-19T04:12:03.580Z,248.07
2023-05-19T04:13:03.575Z,249.41
2023-05-19T04:14:03.569Z,245.24
2023-05-19T04:15:03.569Z,245.34
2023-05-19T04:16:03.594Z,245.18
2023-05-19T04:17:03.549Z,246.09
2023-05-19T04:18:03.536Z,246.62
2023-05-19T04:19:03.606Z,245.73
2023-05-19T04:20:03.532Z,244.99
2023-05-19T04:21:03.511Z,244.90
2023-05-19T04:22:03.498Z,247.80
2023-05-19T04:23:03.490Z,246.28
2023-05-19T04:24:03.496Z,244.35
2023-05-19T04:25:03.481Z,244.20
2023-05-19T04:26:03.539Z,245.97
2023-05-19T04:27:03.481Z,245.21
2023-05-19T04:28:03.481Z,243.81
2023-05-19T04:29:03.452Z,245.77
2023-05-19T04:30:03.452Z,245.86
2023-05-19T04:31:03.466Z,246.80
2023-05-19T04:32:03.426Z,241.42
2023-05-19T04:33:03.465Z,244.04
2023-05-19T04:34:03.430Z,243.32
2023-05-19T04:35:03.407Z,239.48
2023-05-19T04:36:03.409Z,240.07
2023-05-19T04:37:03.384Z,240.65
2023-05-19T04:38:03.424Z,241.40
2023-05-19T04:39:03.386Z,241.19
2023-05-19T04:40:03.367Z,239.93
2023-05-19T04:41:03.363Z,238.54
2023-05-19T04:42:03.376Z,238.78
2023-05-19T04:43:03.347Z,240.05
2023-05-19T04:44:03.354Z,236.95
2023-05-19T04:45:03.356Z,238.55
2023-05-19T04:46:03.336Z,236.41
2023-05-19T04:47:03.393Z,234.68
2023-05-19T04:48:03.386Z,233.79
2023-05-19T04:49:03.311Z,234.32
2023-05-19T04:50:03.306Z,233.05
2023-05-19T04:51:03.338Z,233.87
2023-05-19T04:52:03.352Z,235.92
2023-05-19T04:53:03.386Z,236.05
2023-05-19T04:54:03.395Z,238.36
2023-05-19T04:55:03.380Z,240.74
2023-05-19T04:56:03.419Z,239.79
2023-05-19T04:57:03.402Z,241.14
2023-05-19T04:58:03.430Z,241.44
2023-05-19T04:59:03.411Z,234.63
2023-05-19T05:00:03.444Z,233.28
2023-05-19T05:01:03.442Z,233.74
2023-05-19T05:02:03.469Z,231.74
2023-05-19T05:03:03.546Z,231.33
2023-05-19T05:04:03.555Z,233.42
2023-05-19T05:05:03.441Z,238.44
2023-05-19T05:06:03.499Z,240.83
2023-05-19T05:07:03.504Z,242.13
2023-05-19T05:08:03.509Z,248.75
2023-05-19T05:09:03.484Z,234.52
2023-05-19T05:10:03.489Z,227.04
2023-05-19T05:11:03.516Z,224.03
2023-05-19T05:12:03.518Z,221.29
2023-05-19T05:13:03.527Z,217.86
2023-05-19T05:14:03.523Z,215.49
2023-05-19T05:15:03.552Z,213.21
2023-05-19T05:16:03.598Z,211.15
2023-05-19T05:17:03.576Z,211.42
2023-05-19T05:18:03.640Z,207.45
2023-05-19T05:19:03.600Z,205.01
2023-05-19T05:20:03.604Z,200.92
2023-05-19T05:21:03.612Z,199.74
2023-05-19T05:22:03.642Z,199.24
2023-05-19T05:23:03.650Z,195.61
2023-05-19T05:24:03.645Z,193.62
2023-05-19T05:25:03.661Z,193.22
2023-05-19T05:26:03.704Z,192.32
2023-05-19T05:27:03.721Z,189.96
2023-05-19T05:28:03.745Z,190.05
2023-05-19T05:29:03.732Z,187.35
2023-05-19T05:30:03.724Z,187.02
2023-05-19T05:31:03.783Z,187.57
2023-05-19T05:32:03.833Z,187.07
2023-05-19T05:33:03.906Z,185.66
2023-05-19T05:34:03.766Z,183.93
2023-05-19T05:35:03.835Z,183.37
2023-05-19T05:36:03.848Z,183.05
2023-05-19T05:37:03.817Z,183.79
2023-05-19T05:38:03.806Z,184.42
2023-05-19T05:39:03.834Z,183.85
2023-05-19T05:40:03.834Z,185.63
2023-05-19T05:41:03.873Z,186.94
2023-05-19T05:42:03.859Z,188.08
2023-05-19T05:43:03.861Z,190.42
2023-05-19T05:44:03.858Z,192.17
2023-05-19T05:45:03.861Z,191.84
2023-05-19T05:46:03.918Z,192.83
2023-05-19T05:47:03.899Z,193.49
2023-05-19T05:48:03.978Z,193.28
2023-05-19T05:49:03.900Z,194.17
2023-05-19T05:50:03.880Z,196.55
2023-05-19T05:51:03.889Z,196.84
2023-05-19T05:52:06.352Z,199.91
2023-05-19T05:53:03.869Z,202.05
2023-05-19T05:54:03.863Z,201.42
2023-05-19T05:55:03.872Z,200.56
2023-05-19T05:56:03.870Z,198.77
2023-05-19T05:57:03.859Z,198.36
2023-05-19T05:58:03.860Z,197.84
2023-05-19T05:59:03.862Z,198.38
2023-05-19T06:00:03.859Z,198.06
2023-05-19T06:01:03.846Z,199.13
2023-05-19T06:02:03.913Z,199.00
2023-05-19T06:03:03.918Z,201.89
2023-05-19T06:04:03.818Z,201.95
2023-05-19T06:05:03.833Z,205.60
2023-05-19T06:06:03.898Z,201.95
2023-05-19T06:07:03.800Z,203.47
2023-05-19T06:08:03.803Z,202.02
2023-05-19T06:09:03.809Z,204.22
2023-05-19T06:10:03.790Z,205.30
2023-05-19T06:11:03.784Z,203.13
2023-05-19T06:12:03.765Z,203.46
2023-05-19T06:13:03.763Z,204.47
2023-05-19T06:14:03.756Z,204.23
2023-05-19T06:15:03.750Z,204.82
2023-05-19T06:16:03.780Z,205.77
2023-05-19T06:17:03.720Z,207.57
2023-05-19T06:18:03.802Z,207.11
2023-05-19T06:19:03.743Z,207.16
2023-05-19T06:20:03.726Z,206.25
2023-05-19T06:21:03.710Z,206.79
2023-05-19T06:22:03.700Z,209.53
2023-05-19T06:23:03.696Z,207.58
2023-05-19T06:24:03.685Z,209.36
2023-05-19T06:25:03.679Z,215.34
2023-05-19T06:26:03.669Z,224.90
2023-05-19T06:27:03.669Z,221.32
2023-05-19T06:28:03.690Z,224.88
2023-05-19T06:29:03.668Z,224.14
2023-05-19T06:30:03.645Z,223.55
2023-05-19T06:31:03.703Z,222.43
2023-05-19T06:32:03.617Z,227.68
2023-05-19T06:33:03.730Z,233.65
2023-05-19T06:34:03.600Z,238.06
2023-05-19T06:35:03.593Z,238.17
2023-05-19T06:36:03.592Z,240.28
2023-05-19T06:37:03.607Z,238.71
2023-05-19T06:38:03.639Z,240.71
2023-05-19T06:39:03.596Z,244.15
2023-05-19T06:40:03.566Z,247.14
2023-05-19T06:41:03.578Z,250.03
2023-05-19T06:42:03.567Z,248.11
2023-05-19T06:43:03.545Z,250.00
2023-05-19T06:44:03.529Z,250.00
2023-05-19T06:45:03.555Z,247.18
2023-05-19T06:46:03.534Z,249.87
2023-05-19T06:47:03.587Z,249.83
2023-05-19T06:48:03.584Z,248.48
2023-05-19T06:49:03.509Z,249.17
2023-05-19T06:50:03.511Z,250.00
2023-05-19T06:51:03.496Z,248.52
2023-05-19T06:52:03.475Z,246.80
2023-05-19T06:53:03.489Z,244.57
2023-05-19T06:54:03.460Z,241.00
2023-05-19T06:55:03.451Z,242.21
2023-05-19T06:56:03.465Z,243.18
2023-05-19T06:57:03.465Z,241.91
2023-05-19T06:58:03.467Z,244.94
2023-05-19T06:59:03.448Z,243.91
2023-05-19T07:00:03.425Z,249.31
2023-05-19T07:01:03.422Z,248.43
2023-05-19T07:02:03.448Z,248.25
2023-05-19T07:03:03.497Z,249.94
2023-05-19T07:04:03.498Z,249.62
2023-05-19T07:05:03.386Z,248.74
2023-05-19T07:06:04.571Z,250.11
2023-05-19T07:07:03.460Z,250.01
2023-05-19T07:08:03.463Z,249.45
2023-05-19T07:09:03.488Z,246.83
2023-05-19T07:10:03.557Z,244.32
2023-05-19T07:11:03.593Z,247.65
2023-05-19T07:12:03.663Z,246.81
2023-05-19T07:13:03.723Z,248.61
2023-05-19T07:14:03.766Z,245.71
2023-05-19T07:15:03.819Z,241.55
2023-05-19T07:16:03.900Z,239.52
2023-05-19T07:17:03.956Z,236.56
2023-05-19T07:18:04.061Z,230.70
2023-05-19T07:19:04.102Z,226.29
2023-05-19T07:20:04.114Z,225.63
2023-05-19T07:21:04.162Z,220.65
2023-05-19T07:22:04.207Z,216.45
2023-05-19T07:23:04.315Z,215.84
2023-05-19T07:24:04.322Z,213.88
2023-05-19T07:25:04.399Z,212.89
2023-05-19T07:26:04.455Z,212.68
2023-05-19T07:27:04.523Z,212.34
2023-05-19T07:28:04.571Z,211.24
2023-05-19T07:29:04.617Z,211.80
2023-05-19T07:30:04.680Z,210.60
2023-05-19T07:31:04.729Z,211.27
2023-05-19T07:32:04.832Z,212.53
2023-05-19T07:33:04.888Z,210.50
2023-05-19T07:34:04.902Z,212.52
2023-05-19T07:35:04.976Z,209.95
2023-05-19T07:36:05.037Z,207.23
2023-05-19T07:37:05.126Z,204.05
2023-05-19T07:38:05.136Z,201.11
2023-05-19T07:39:05.379Z,198.95
2023-05-19T07:40:05.267Z,195.26
2023-05-19T07:41:05.332Z,190.46
2023-05-19T07:42:05.330Z,185.81
2023-05-19T07:43:05.398Z,187.38
2023-05-19T07:44:05.458Z,185.83
2023-05-19T07:45:05.485Z,187.09
2023-05-19T07:46:05.604Z,185.20
2023-05-19T07:47:05.590Z,187.15
2023-05-19T07:48:05.720Z,188.43
2023-05-19T07:49:05.700Z,183.77
2023-05-19T07:50:05.768Z,185.21
2023-05-19T07:51:05.840Z,187.25
2023-05-19T07:52:05.881Z,186.99
2023-05-19T07:53:06.003Z,186.24
2023-05-19T07:54:06.067Z,195.82
2023-05-19T07:55:06.051Z,197.52
2023-05-19T07:56:06.061Z,192.94
2023-05-19T07:57:06.108Z,192.25
2023-05-19T07:58:06.132Z,203.86
2023-05-19T07:59:06.185Z,200.74
2023-05-19T08:00:06.247Z,200.96
2023-05-19T08:01:06.285Z,199.23
2023-05-19T08:02:06.393Z,200.88
2023-05-19T08:03:06.521Z,208.05
2023-05-19T08:04:06.455Z,211.66
2023-05-19T08:05:06.406Z,214.60
2023-05-19T08:06:06.444Z,213.64
2023-05-19T08:07:06.474Z,210.64
2023-05-19T08:08:06.517Z,210.81
2023-05-19T08:09:06.560Z,208.88
2023-05-19T08:10:06.629Z,211.55
2023-05-19T08:11:06.596Z,208.70
2023-05-19T08:12:06.626Z,211.20
2023-05-19T08:13:06.622Z,209.27
2023-05-19T08:14:06.675Z,208.83
2023-05-19T08:15:06.707Z,210.98
2023-05-19T08:16:06.755Z,208.40
2023-05-19T08:17:06.735Z,210.66
2023-05-19T08:18:06.793Z,212.20
2023-05-19T08:19:06.863Z,208.88
2023-05-19T08:20:06.927Z,207.90
2023-05-19T08:21:06.945Z,209.54
2023-05-19T08:22:06.932Z,209.90
2023-05-19T08:23:06.952Z,209.58
2023-05-19T08:24:06.955Z,209.64
2023-05-19T08:25:06.975Z,212.57
2023-05-19T08:26:07.004Z,212.79
2023-05-19T08:27:07.031Z,215.10
2023-05-19T08:28:07.077Z,214.53
2023-05-19T08:29:07.119Z,216.16
2023-05-19T08:30:07.165Z,220.24
2023-05-19T08:31:07.223Z,222.17
2023-05-19T08:32:07.250Z,224.09
2023-05-19T08:33:07.422Z,225.62
2023-05-19T08:34:07.314Z,223.98
2023-05-19T08:35:07.365Z,225.59
2023-05-19T08:36:07.416Z,226.02
2023-05-19T08:37:07.465Z,227.48
2023-05-19T08:38:07.500Z,225.67
2023-05-19T08:39:07.548Z,228.24
2023-05-19T08:40:07.610Z,232.53
2023-05-19T08:41:07.637Z,230.03
2023-05-19T08:42:07.701Z,229.52
2023-05-19T08:43:07.750Z,231.21
2023-05-19T08:44:07.804Z,230.50
2023-05-19T08:45:07.845Z,231.55
2023-05-19T08:46:07.934Z,228.85
2023-05-19T08:47:08.140Z,224.52
2023-05-19T08:48:08.064Z,220.92
2023-05-19T08:49:08.042Z,217.62
2023-05-19T08:50:08.104Z,215.91
2023-05-19T08:51:08.156Z,214.02
2023-05-19T08:52:08.198Z,211.32
2023-05-19T08:53:12.747Z,211.38
2023-05-19T08:54:09.268Z,210.85
2023-05-19T08:55:08.260Z,208.14
2023-05-19T08:56:08.256Z,206.61
2023-05-19T08:57:08.233Z,207.58
2023-05-19T08:58:08.227Z,204.72
2023-05-19T08:59:08.231Z,205.34
2023-05-19T09:00:08.194Z,205.98
2023-05-19T09:01:08.261Z,203.87
2023-05-19T09:02:08.190Z,204.42
2023-05-19T09:04:08.257Z,201.11
2023-05-19T09:05:08.391Z,199.06
2023-05-19T09:06:08.251Z,197.08
2023-05-19T09:07:08.151Z,199.80
2023-05-19T09:08:08.151Z,206.35
2023-05-19T09:09:08.130Z,213.28
2023-05-19T09:10:08.144Z,221.24
2023-05-19T09:11:08.135Z,223.52
2023-05-19T09:12:08.130Z,223.87
2023-05-19T09:13:08.117Z,226.48
2023-05-19T09:14:08.087Z,225.36
2023-05-19T09:15:08.102Z,227.78
2023-05-19T09:16:08.390Z,225.60
2023-05-19T09:17:08.212Z,221.58
2023-05-19T09:18:08.117Z,220.02
2023-05-19T09:19:08.133Z,221.91
2023-05-19T09:20:08.071Z,221.88
2023-05-19T09:21:08.051Z,221.22
2023-05-19T09:22:08.037Z,220.50
2023-05-19T09:23:08.046Z,223.98
2023-05-19T09:24:08.063Z,222.39
2023-05-19T09:25:08.096Z,222.70
2023-05-19T09:26:08.207Z,220.02
2023-05-19T09:27:08.057Z,220.08
2023-05-19T09:28:08.027Z,216.21
2023-05-19T09:29:07.985Z,216.34
2023-05-19T09:30:07.994Z,211.18
2023-05-19T09:31:07.982Z,214.46
2023-05-19T09:32:08.003Z,216.67
2023-05-19T09:33:08.065Z,215.24
2023-05-19T09:34:07.955Z,214.44
2023-05-19T09:35:07.976Z,214.11
2023-05-19T09:36:07.942Z,215.76
2023-05-19T09:37:07.945Z,217.78
2023-05-19T09:38:07.925Z,215.03
2023-05-19T09:39:07.913Z,213.74
2023-05-19T09:40:07.915Z,213.14
2023-05-19T09:41:07.929Z,212.97
2023-05-19T09:42:07.919Z,213.66
2023-05-19T09:43:07.939Z,214.92
2023-05-19T09:44:07.954Z,213.69
2023-05-19T09:45:07.893Z,214.73
2023-05-19T09:46:08.063Z,217.33
2023-05-19T09:47:07.881Z,213.81
2023-05-19T09:48:08.105Z,210.03
2023-05-19T09:49:07.873Z,209.25
2023-05-19T09:50:07.865Z,204.73
2023-05-19T09:51:08.065Z,203.79
2023-05-19T09:52:07.922Z,207.42
2023-05-19T09:53:07.850Z,211.30
2023-05-19T09:54:07.835Z,213.74
2023-05-19T09:55:07.819Z,218.50
2023-05-19T09:56:07.832Z,219.07
2023-05-19T09:57:08.621Z,219.24
2023-05-19T09:58:07.788Z,222.51
2023-05-19T09:59:07.788Z,224.82
2023-05-19T10:00:07.784Z,226.09
2023-05-19T10:01:07.793Z,227.79
2023-05-19T10:02:07.777Z,229.71
2023-05-19T10:03:07.843Z,233.07
2023-05-19T10:04:07.759Z,234.95
2023-05-19T10:05:07.780Z,235.88
2023-05-19T10:06:07.737Z,236.20
2023-05-19T10:07:07.751Z,238.33
2023-05-19T10:08:07.741Z,230.74
2023-05-19T10:09:07.735Z,222.65
2023-05-19T10:10:07.720Z,216.22
2023-05-19T10:11:07.721Z,212.43
2023-05-19T10:12:07.708Z,206.94
2023-05-19T10:13:07.729Z,204.53
2023-05-19T10:14:07.694Z,204.10
2023-05-19T10:15:07.694Z,202.64
2023-05-19T10:16:07.760Z,198.64
2023-05-19T10:17:07.795Z,198.21
2023-05-19T10:18:07.770Z,196.65
2023-05-19T10:19:07.783Z,198.11
2023-05-19T10:20:07.801Z,196.66
2023-05-19T10:21:07.814Z,197.97
2023-05-19T10:22:07.843Z,181.46
2023-05-19T10:23:07.890Z,186.32
2023-05-19T10:24:07.930Z,194.13
2023-05-19T10:25:08.013Z,191.64
2023-05-19T10:26:07.987Z,186.79
2023-05-19T10:27:08.033Z,182.44
2023-05-19T10:28:08.064Z,174.63
2023-05-19T10:29:08.090Z,171.86
2023-05-19T10:30:09.355Z,169.82
2023-05-19T10:31:08.143Z,162.97
2023-05-19T10:32:08.201Z,169.15
2023-05-19T10:33:08.133Z,173.40
2023-05-19T10:34:08.093Z,167.53
2023-05-19T10:35:08.079Z,164.83
2023-05-19T10:36:08.085Z,161.88
2023-05-19T10:37:08.097Z,156.16
2023-05-19T10:38:08.084Z,155.55
2023-05-19T10:39:08.098Z,158.01
2023-05-19T10:40:08.055Z,157.86
2023-05-19T10:41:08.048Z,162.79
2023-05-19T10:42:08.055Z,163.30
2023-05-19T10:43:08.054Z,159.48
2023-05-19T10:44:08.021Z,172.58
2023-05-19T10:45:08.026Z,188.89
2023-05-19T10:46:08.019Z,191.39
2023-05-19T10:47:08.092Z,187.75
2023-05-19T10:48:08.060Z,184.30
2023-05-19T10:49:08.002Z,177.34
2023-05-19T10:50:07.988Z,182.72
2023-05-19T10:51:07.981Z,194.33
2023-05-19T10:52:07.983Z,201.02
2023-05-19T10:53:07.993Z,196.50
2023-05-19T10:54:07.971Z,193.61
2023-05-19T10:55:07.984Z,198.79
2023-05-19T10:56:07.979Z,202.23
2023-05-19T10:57:07.989Z,202.93
2023-05-19T10:58:07.975Z,201.09
2023-05-19T10:59:07.936Z,195.30
2023-05-19T11:00:07.956Z,192.90
2023-05-19T11:01:07.955Z,198.09
2023-05-19T11:02:08.046Z,196.98
2023-05-19T11:03:07.999Z,199.63
2023-05-19T11:04:08.064Z,196.58
2023-05-19T11:05:07.914Z,194.21
2023-05-19T11:06:07.935Z,201.11
2023-05-19T11:07:07.897Z,207.35
2023-05-19T11:08:07.911Z,204.62
2023-05-19T11:09:07.887Z,205.46
2023-05-19T11:10:07.877Z,205.22
2023-05-19T11:11:07.904Z,201.51
2023-05-19T11:12:07.890Z,204.06
2023-05-19T11:13:07.898Z,208.95
2023-05-19T11:14:07.870Z,208.66
2023-05-19T11:15:07.855Z,209.76
2023-05-19T11:16:07.877Z,212.64
2023-05-19T11:17:07.891Z,211.26
2023-05-19T11:18:07.947Z,208.89
2023-05-19T11:19:07.933Z,209.01
2023-05-19T11:20:07.905Z,217.00
2023-05-19T11:21:07.923Z,213.92
2023-05-19T11:22:07.919Z,219.52
2023-05-19T11:23:08.064Z,216.70
2023-05-19T11:24:07.891Z,210.41
2023-05-19T11:25:07.776Z,215.09
2023-05-19T11:26:07.768Z,208.19
2023-05-19T11:27:07.759Z,214.72
2023-05-19T11:28:07.773Z,206.51
2023-05-19T11:29:07.802Z,214.38
2023-05-19T11:30:07.761Z,218.07
2023-05-19T11:31:07.730Z,208.34
2023-05-19T11:32:07.781Z,203.20
2023-05-19T11:33:07.821Z,203.89
2023-05-19T11:34:07.713Z,190.86
2023-05-19T11:35:07.700Z,187.31
2023-05-19T11:36:07.749Z,192.03
2023-05-19T11:37:07.705Z,195.35
2023-05-19T11:38:07.727Z,188.60
2023-05-19T11:39:07.682Z,173.33
2023-05-19T11:40:07.674Z,164.54
2023-05-19T11:41:07.652Z,164.03
2023-05-19T11:42:07.663Z,164.64
2023-05-19T11:43:07.675Z,166.74
2023-05-19T11:44:07.652Z,156.70
2023-05-19T11:45:07.636Z,151.75
2023-05-19T11:46:07.761Z,141.93
2023-05-19T11:47:07.706Z,147.49
2023-05-19T11:48:07.766Z,146.65
2023-05-19T11:49:07.734Z,157.39
2023-05-19T11:50:07.791Z,146.49
2023-05-19T11:51:07.795Z,138.95
2023-05-19T11:52:07.825Z,128.34
2023-05-19T11:53:07.849Z,129.20
2023-05-19T11:54:07.872Z,132.53
2023-05-19T11:55:07.897Z,129.18
2023-05-19T11:56:07.931Z,125.37
2023-05-19T11:57:07.964Z,127.64
2023-05-19T11:58:07.971Z,128.45
2023-05-19T11:59:08.025Z,124.98
2023-05-19T12:00:08.060Z,130.54
2023-05-19T12:01:08.074Z,118.91
2023-05-19T12:02:08.130Z,116.75
2023-05-19T12:03:08.491Z,116.62
2023-05-19T12:04:08.272Z,121.95
2023-05-19T12:05:08.245Z,128.32
2023-05-19T12:06:08.277Z,129.49
2023-05-19T12:07:08.279Z,137.40
2023-05-19T12:08:08.294Z,154.25
2023-05-19T12:09:08.340Z,159.92
2023-05-19T12:10:08.396Z,176.78
2023-05-19T12:11:08.402Z,188.15
2023-05-19T12:12:08.465Z,197.85
2023-05-19T12:13:08.445Z,200.84
2023-05-19T12:14:08.462Z,209.25
2023-05-19T12:15:08.471Z,203.43
2023-05-19T12:16:08.466Z,207.34
2023-05-19T12:17:08.602Z,213.50
2023-05-19T12:18:08.626Z,212.65
2023-05-19T12:19:08.578Z,207.52
2023-05-19T12:20:08.527Z,199.83
2023-05-19T12:21:08.520Z,202.80
2023-05-19T12:22:08.571Z,202.90
2023-05-19T12:23:08.584Z,200.77
2023-05-19T12:24:08.686Z,202.68
2023-05-19T12:25:08.731Z,207.25
2023-05-19T12:26:08.707Z,204.09
2023-05-19T12:27:08.828Z,207.03
2023-05-19T12:28:08.741Z,206.63
2023-05-19T12:29:08.782Z,208.32
2023-05-19T12:30:08.768Z,206.73